createdAt,value
2022-09-26T00:00:38.002Z,12.16
2022-09-26T00:03:04.494Z,12.16
2022-09-26T00:05:33.120Z,12.19
2022-09-26T00:08:00.003Z,12.19
2022-09-26T00:10:26.705Z,12.12
2022-09-26T00:12:54.182Z,12.12
2022-09-26T00:15:20.749Z,12.18
2022-09-26T00:17:47.249Z,12.15
2022-09-26T00:20:13.715Z,12.28
2022-09-26T00:22:40.229Z,12.24
2022-09-26T00:25:07.066Z,12.28
2022-09-26T00:27:33.701Z,12.18
2022-09-26T00:30:00.264Z,12.24
2022-09-26T00:32:26.729Z,12.21
2022-09-26T00:34:53.770Z,12.20
2022-09-26T00:37:20.232Z,12.10
2022-09-26T00:39:46.659Z,11.84
2022-09-26T00:42:14.410Z,12.00
2022-09-26T00:44:43.962Z,12.14
2022-09-26T00:47:16.193Z,11.93
2022-09-26T00:49:43.167Z,11.90
2022-09-26T00:52:15.832Z,11.93
2022-09-26T00:54:45.364Z,12.04
2022-09-26T00:57:21.328Z,12.26
2022-09-26T00:59:55.604Z,12.18
2022-09-26T01:02:24.980Z,11.93
2022-09-26T01:04:53.955Z,12.05
2022-09-26T01:07:22.405Z,11.74
2022-09-26T01:09:49.305Z,12.03
2022-09-26T01:12:16.449Z,11.89
2022-09-26T01:14:43.914Z,11.82
2022-09-26T01:17:11.114Z,11.76
2022-09-26T01:19:56.486Z,11.99
2022-09-26T01:22:23.170Z,11.94
2022-09-26T01:25:28.254Z,11.88
2022-09-26T01:27:58.028Z,11.98
2022-09-26T01:30:27.018Z,12.04
2022-09-26T01:33:07.612Z,12.06
2022-09-26T01:35:46.248Z,12.05
2022-09-26T01:38:21.569Z,11.99
2022-09-26T01:41:05.054Z,11.72
2022-09-26T01:43:31.497Z,11.68
2022-09-26T01:46:06.222Z,11.65
2022-09-26T01:48:36.206Z,11.76
2022-09-26T01:51:05.665Z,11.71
2022-09-26T01:53:39.471Z,11.79
2022-09-26T01:56:12.575Z,11.71
2022-09-26T01:58:51.636Z,11.51
2022-09-26T02:01:19.812Z,11.49
2022-09-26T02:03:48.910Z,11.65
2022-09-26T02:06:25.264Z,11.18
2022-09-26T02:08:58.213Z,11.51
2022-09-26T02:11:25.605Z,11.84
2022-09-26T02:13:55.771Z,11.45
2022-09-26T02:16:32.180Z,11.59
2022-09-26T02:19:06.792Z,11.47
2022-09-26T02:21:33.287Z,11.63
2022-09-26T02:23:59.746Z,11.66
2022-09-26T02:26:26.848Z,11.40
2022-09-26T02:28:53.537Z,11.37
2022-09-26T02:31:22.842Z,11.33
2022-09-26T02:33:50.011Z,11.47
2022-09-26T02:36:18.582Z,11.60
2022-09-26T02:38:45.060Z,11.50
2022-09-26T02:41:13.512Z,11.55
2022-09-26T02:43:49.052Z,11.53
2022-09-26T02:46:27.611Z,11.42
2022-09-26T02:49:12.755Z,11.43
2022-09-26T02:51:58.253Z,11.50
2022-09-26T02:54:43.821Z,11.47
2022-09-26T02:57:16.599Z,11.55
2022-09-26T02:59:50.284Z,11.42
2022-09-26T03:02:19.220Z,11.36
2022-09-26T03:04:45.747Z,11.53
2022-09-26T03:07:14.938Z,11.26
2022-09-26T03:09:41.996Z,11.25
2022-09-26T03:12:10.115Z,11.26
2022-09-26T03:14:39.495Z,11.32
2022-09-26T03:17:06.634Z,11.03
2022-09-26T03:19:39.040Z,11.18
2022-09-26T03:22:05.814Z,11.21
2022-09-26T03:24:32.860Z,11.18
2022-09-26T03:27:00.802Z,11.23
2022-09-26T03:29:29.271Z,11.14
2022-09-26T03:31:55.815Z,11.15
2022-09-26T03:34:22.553Z,11.17
2022-09-26T03:36:48.974Z,11.21
2022-09-26T03:39:16.482Z,11.25
2022-09-26T03:41:42.961Z,11.29
2022-09-26T03:44:09.485Z,11.31
2022-09-26T03:46:39.904Z,11.28
2022-09-26T03:49:06.793Z,11.28
2022-09-26T03:51:33.370Z,11.34
2022-09-26T03:53:59.960Z,11.14
2022-09-26T03:56:27.506Z,11.27
2022-09-26T03:58:54.190Z,11.32
2022-09-26T04:01:21.667Z,11.39
2022-09-26T04:03:50.942Z,11.35
2022-09-26T04:06:20.440Z,11.40
2022-09-26T04:08:48.817Z,11.44
2022-09-26T04:11:16.418Z,11.35
2022-09-26T04:13:53.939Z,11.45
2022-09-26T04:16:22.791Z,11.28
2022-09-26T04:18:49.794Z,11.16
2022-09-26T04:21:16.791Z,11.15
2022-09-26T04:23:43.871Z,11.14
2022-09-26T04:26:11.991Z,11.05
2022-09-26T04:28:39.826Z,11.18
2022-09-26T04:31:07.506Z,11.22
2022-09-26T04:33:34.338Z,11.08
2022-09-26T04:36:01.868Z,11.06
2022-09-26T04:38:34.311Z,10.92
2022-09-26T04:41:06.874Z,10.87
2022-09-26T04:43:33.510Z,10.93
2022-09-26T04:46:00.167Z,10.89
2022-09-26T04:48:28.706Z,10.85
2022-09-26T04:50:55.161Z,10.96
2022-09-26T04:53:21.650Z,10.93
2022-09-26T04:55:48.451Z,10.97
2022-09-26T04:58:15.716Z,10.93
2022-09-26T05:00:45.448Z,11.06
2022-09-26T05:03:13.738Z,11.06
2022-09-26T05:05:50.651Z,10.91
2022-09-26T05:08:17.273Z,10.92
2022-09-26T05:10:43.833Z,10.85
2022-09-26T05:13:10.372Z,10.82
2022-09-26T05:15:39.812Z,10.87
2022-09-26T05:18:07.796Z,10.80
2022-09-26T05:20:38.033Z,10.84
2022-09-26T05:23:06.889Z,10.91
2022-09-26T05:25:59.371Z,10.81
2022-09-26T05:28:26.210Z,10.86
2022-09-26T05:30:54.507Z,10.82
2022-09-26T05:33:21.809Z,10.73
2022-09-26T05:35:53.399Z,10.73
2022-09-26T05:38:19.852Z,10.68
2022-09-26T05:40:58.603Z,10.82
2022-09-26T05:43:26.962Z,10.82
2022-09-26T05:46:00.777Z,10.74
2022-09-26T05:48:27.695Z,10.79
2022-09-26T05:50:54.137Z,10.93
2022-09-26T05:53:20.800Z,11.02
2022-09-26T05:55:50.616Z,11.23
2022-09-26T05:58:18.983Z,11.30
2022-09-26T06:00:49.594Z,11.33
2022-09-26T06:03:16.093Z,11.38
2022-09-26T06:05:43.068Z,11.39
2022-09-26T06:08:10.235Z,11.41
2022-09-26T06:10:38.908Z,11.18
2022-09-26T06:13:05.917Z,11.32
2022-09-26T06:15:32.481Z,11.41
2022-09-26T06:18:04.474Z,11.38
2022-09-26T06:20:34.800Z,11.42
2022-09-26T06:23:01.879Z,11.29
2022-09-26T06:25:29.756Z,11.43
2022-09-26T06:28:00.036Z,11.51
2022-09-26T06:30:27.239Z,11.54
2022-09-26T06:32:54.165Z,11.51
2022-09-26T06:35:21.433Z,11.87
2022-09-26T06:37:48.361Z,11.79
2022-09-26T06:40:14.951Z,11.97
2022-09-26T06:42:41.629Z,12.28
2022-09-26T06:45:09.303Z,13.35
2022-09-26T06:47:36.171Z,14.46
2022-09-26T06:50:02.920Z,15.44
2022-09-26T06:52:34.929Z,15.68
2022-09-26T06:55:02.878Z,15.73
2022-09-26T06:57:35.991Z,16.34
2022-09-26T07:00:02.776Z,16.25
2022-09-26T07:02:29.230Z,16.35
2022-09-26T07:04:55.683Z,15.80
2022-09-26T07:07:22.758Z,15.28
2022-09-26T07:09:49.170Z,14.52
2022-09-26T07:12:16.276Z,15.06
2022-09-26T07:14:42.946Z,14.91
2022-09-26T07:17:15.596Z,15.54
2022-09-26T07:19:42.429Z,16.14
2022-09-26T07:22:10.064Z,17.29
2022-09-26T07:24:36.666Z,15.92
2022-09-26T07:27:03.330Z,16.23
2022-09-26T07:29:29.790Z,17.00
2022-09-26T07:31:56.635Z,16.29
2022-09-26T07:34:25.123Z,16.86
2022-09-26T07:36:51.970Z,17.34
2022-09-26T07:39:18.567Z,15.91
2022-09-26T07:41:46.136Z,16.49
2022-09-26T07:47:19.291Z,17.17
2022-09-26T07:50:04.262Z,16.63
2022-09-26T07:52:30.834Z,17.18
2022-09-26T07:54:57.278Z,15.98
2022-09-26T07:57:23.763Z,15.39
2022-09-26T07:59:50.589Z,15.39
2022-09-26T08:02:24.765Z,16.00
2022-09-26T08:04:58.822Z,16.98
2022-09-26T08:07:28.317Z,17.38
2022-09-26T08:09:54.955Z,17.77
2022-09-26T08:12:21.736Z,17.95
2022-09-26T08:14:53.034Z,18.03
2022-09-26T08:17:20.314Z,17.30
2022-09-26T08:19:46.765Z,18.08
2022-09-26T08:22:13.372Z,18.59
2022-09-26T08:24:40.032Z,19.13
2022-09-26T08:27:06.614Z,19.48
2022-09-26T08:29:34.282Z,18.04
2022-09-26T08:32:03.145Z,18.62
2022-09-26T08:34:35.278Z,19.58
2022-09-26T08:37:01.871Z,18.97
2022-09-26T08:39:33.160Z,19.03
2022-09-26T08:42:21.055Z,19.58
2022-09-26T08:45:30.781Z,19.53
2022-09-26T08:48:06.670Z,19.25
2022-09-26T08:50:47.386Z,19.03
2022-09-26T08:53:20.430Z,18.91
2022-09-26T08:55:48.613Z,18.81
2022-09-26T08:58:19.898Z,18.27
2022-09-26T09:00:47.979Z,19.20
2022-09-26T09:03:32.302Z,18.42
2022-09-26T09:06:02.485Z,16.49
2022-09-26T09:08:36.362Z,17.98
2022-09-26T09:11:09.486Z,18.67
2022-09-26T09:13:51.256Z,19.07
2022-09-26T09:16:20.793Z,17.53
2022-09-26T09:18:56.507Z,18.15
2022-09-26T09:21:25.884Z,18.40
2022-09-26T09:24:03.297Z,18.89
2022-09-26T09:29:43.104Z,19.34
2022-09-26T09:32:12.653Z,19.35
2022-09-26T09:34:41.046Z,18.70
2022-09-26T09:37:11.836Z,18.01
2022-09-26T09:39:40.365Z,17.41
2022-09-26T09:42:13.112Z,17.15
2022-09-26T09:44:46.650Z,16.79
2022-09-26T09:47:15.139Z,16.12
2022-09-26T09:49:42.571Z,15.91
2022-09-26T09:52:09.033Z,16.08
2022-09-26T09:54:38.495Z,15.72
2022-09-26T09:57:21.988Z,15.81
2022-09-26T09:59:48.412Z,16.00
2022-09-26T10:02:24.302Z,16.05
2022-09-26T10:05:03.351Z,16.06
2022-09-26T10:07:29.810Z,15.67
2022-09-26T10:09:57.002Z,15.60
2022-09-26T10:12:28.941Z,15.27
2022-09-26T10:15:04.759Z,15.17
2022-09-26T10:17:31.320Z,15.57
2022-09-26T10:19:57.757Z,15.22
2022-09-26T10:22:30.422Z,15.35
2022-09-26T10:25:02.489Z,15.42
2022-09-26T10:27:37.774Z,15.62
2022-09-26T10:30:21.782Z,15.85
2022-09-26T10:32:55.444Z,16.22
2022-09-26T10:35:25.293Z,16.80
2022-09-26T10:37:58.937Z,16.83
2022-09-26T10:40:45.337Z,16.57
2022-09-26T10:43:30.794Z,16.86
2022-09-26T10:46:05.993Z,16.45
2022-09-26T10:48:48.376Z,16.72
2022-09-26T10:51:21.163Z,16.10
2022-09-26T10:53:52.518Z,16.83
2022-09-26T10:56:26.369Z,17.71
2022-09-26T10:58:57.347Z,18.02
2022-09-26T11:01:28.793Z,18.23
2022-09-26T11:03:56.489Z,17.90
2022-09-26T11:06:34.466Z,17.66
2022-09-26T11:09:03.392Z,18.22
2022-09-26T11:11:33.855Z,18.00
2022-09-26T11:14:10.706Z,17.78
2022-09-26T11:16:38.461Z,17.68
2022-09-26T11:19:22.797Z,17.98
2022-09-26T11:21:49.291Z,18.25
2022-09-26T11:24:22.207Z,18.26
2022-09-26T11:26:49.654Z,18.15
2022-09-26T11:29:35.317Z,17.87
2022-09-26T11:32:05.155Z,18.18
2022-09-26T11:34:33.380Z,17.92
2022-09-26T11:37:31.207Z,17.60
2022-09-26T11:40:13.518Z,18.73
2022-09-26T11:42:58.448Z,18.07
2022-09-26T11:45:37.576Z,18.53
2022-09-26T11:48:08.837Z,17.80
2022-09-26T11:50:40.313Z,17.45
2022-09-26T11:53:09.601Z,17.54
2022-09-26T11:55:56.055Z,18.10
2022-09-26T11:58:39.187Z,18.16
2022-09-26T12:01:27.465Z,18.58
2022-09-26T12:04:14.202Z,18.25
2022-09-26T12:07:02.930Z,18.02
2022-09-26T12:09:32.123Z,18.15
2022-09-26T12:11:59.391Z,18.20
2022-09-26T12:14:41.267Z,18.08
2022-09-26T12:17:15.022Z,18.01
2022-09-26T12:19:50.740Z,17.62
2022-09-26T12:22:29.400Z,17.66
2022-09-26T12:25:20.478Z,17.60
2022-09-26T12:27:49.776Z,17.51
2022-09-26T12:30:19.910Z,17.47
2022-09-26T12:32:52.645Z,17.40
2022-09-26T12:35:29.644Z,17.21
2022-09-26T12:38:20.729Z,17.12
2022-09-26T12:40:53.685Z,17.50
2022-09-26T12:43:40.904Z,17.44
2022-09-26T12:46:07.670Z,17.23
2022-09-26T12:48:53.783Z,17.34
2022-09-26T12:51:24.498Z,17.52
2022-09-26T12:53:53.806Z,17.92
2022-09-26T12:56:40.485Z,17.79
2022-09-26T12:59:25.361Z,18.10
2022-09-26T13:02:17.205Z,17.25
2022-09-26T13:04:46.699Z,17.41
2022-09-26T13:07:31.200Z,16.97
2022-09-26T13:09:57.634Z,17.23
2022-09-26T13:12:45.750Z,17.03
2022-09-26T13:15:24.478Z,17.24
2022-09-26T13:17:53.822Z,17.15
2022-09-26T13:20:27.461Z,17.18
2022-09-26T13:23:09.847Z,17.38
2022-09-26T13:25:52.379Z,17.22
2022-09-26T13:28:18.831Z,17.21
2022-09-26T13:31:03.487Z,17.15
2022-09-26T13:33:40.397Z,17.08
2022-09-26T13:36:09.800Z,17.09
2022-09-26T13:38:39.289Z,17.29
2022-09-26T13:41:11.873Z,17.30
2022-09-26T13:43:54.758Z,17.19
2022-09-26T13:46:32.566Z,16.87
2022-09-26T13:49:25.075Z,16.90
2022-09-26T13:52:00.943Z,17.61
2022-09-26T13:54:30.648Z,17.26
2022-09-26T13:56:57.331Z,17.16
2022-09-26T13:59:26.389Z,17.55
2022-09-26T14:02:11.842Z,17.60
2022-09-26T14:04:40.138Z,17.58
2022-09-26T14:07:26.536Z,17.51
2022-09-26T14:09:59.074Z,17.31
2022-09-26T14:12:33.587Z,17.38
2022-09-26T14:15:16.189Z,17.44
2022-09-26T14:17:42.671Z,17.02
2022-09-26T14:20:35.480Z,16.87
2022-09-26T14:23:03.415Z,16.84
2022-09-26T14:25:50.150Z,17.23
2022-09-26T14:28:17.553Z,17.10
2022-09-26T14:31:03.973Z,16.85
2022-09-26T14:33:33.277Z,16.66
2022-09-26T14:36:18.741Z,16.50
2022-09-26T14:38:50.464Z,16.94
2022-09-26T14:41:18.516Z,16.84
2022-09-26T14:43:45.679Z,16.87
2022-09-26T14:46:17.990Z,16.95
2022-09-26T14:48:45.434Z,16.51
2022-09-26T14:51:12.326Z,16.73
2022-09-26T14:53:48.034Z,16.55
2022-09-26T14:56:29.761Z,16.05
2022-09-26T14:59:19.325Z,16.50
2022-09-26T15:01:46.247Z,16.40
2022-09-26T15:04:20.694Z,16.59
2022-09-26T15:06:49.023Z,16.12
2022-09-26T15:09:20.337Z,16.06
2022-09-26T15:11:55.299Z,16.05
2022-09-26T15:14:43.311Z,16.20
2022-09-26T15:17:31.790Z,16.12
2022-09-26T15:20:00.376Z,16.19
2022-09-26T15:22:29.547Z,16.11
2022-09-26T15:25:19.824Z,16.24
2022-09-26T15:27:48.823Z,16.01
2022-09-26T15:30:19.545Z,15.86
2022-09-26T15:32:49.263Z,15.93
2022-09-26T15:35:16.239Z,15.62
2022-09-26T15:37:43.780Z,15.59
2022-09-26T15:40:17.135Z,15.65
2022-09-26T15:43:01.574Z,15.83
2022-09-26T15:45:28.919Z,15.87
2022-09-26T15:48:01.504Z,15.57
2022-09-26T15:50:31.512Z,15.39
2022-09-26T15:52:59.280Z,15.42
2022-09-26T15:55:28.347Z,15.51
2022-09-26T15:57:57.311Z,15.61
2022-09-26T16:00:23.783Z,15.64
2022-09-26T16:02:50.677Z,15.66
2022-09-26T16:05:18.875Z,15.44
2022-09-26T16:07:50.314Z,15.61
2022-09-26T16:10:28.425Z,15.67
2022-09-26T16:12:55.667Z,15.53
2022-09-26T16:15:28.506Z,15.35
2022-09-26T16:17:57.376Z,15.53
2022-09-26T16:20:24.357Z,15.50
2022-09-26T16:23:00.388Z,15.57
2022-09-26T16:25:36.093Z,15.54
2022-09-26T16:28:20.681Z,15.44
2022-09-26T16:30:59.097Z,15.35
2022-09-26T16:33:35.571Z,15.09
2022-09-26T16:36:04.127Z,15.25
2022-09-26T16:38:37.342Z,14.95
2022-09-26T16:41:08.153Z,14.88
2022-09-26T16:43:36.317Z,14.62
2022-09-26T16:46:05.933Z,14.43
2022-09-26T16:48:35.429Z,14.50
2022-09-26T16:51:39.553Z,14.65
2022-09-26T16:54:16.103Z,14.51
2022-09-26T16:56:43.379Z,14.37
2022-09-26T16:59:16.367Z,14.20
2022-09-26T17:01:56.255Z,14.02
2022-09-26T17:04:25.100Z,13.90
2022-09-26T17:06:57.436Z,13.98
2022-09-26T17:09:28.408Z,13.87
2022-09-26T17:11:58.986Z,13.74
2022-09-26T17:14:28.130Z,13.43
2022-09-26T17:16:58.206Z,13.24
2022-09-26T17:19:27.201Z,13.09
2022-09-26T17:21:54.261Z,12.97
2022-09-26T17:24:28.541Z,13.01
2022-09-26T17:26:56.738Z,13.10
2022-09-26T17:29:33.510Z,13.01
2022-09-26T17:32:05.078Z,13.26
2022-09-26T17:34:35.384Z,13.32
2022-09-26T17:37:01.881Z,13.39
2022-09-26T17:39:29.364Z,13.32
2022-09-26T17:42:01.748Z,13.29
2022-09-26T17:44:28.241Z,13.04
2022-09-26T17:46:56.253Z,13.19
2022-09-26T17:49:28.044Z,12.92
2022-09-26T17:51:56.768Z,13.09
2022-09-26T17:54:27.150Z,12.92
2022-09-26T17:56:53.578Z,13.16
2022-09-26T17:59:24.498Z,13.03
2022-09-26T18:01:52.823Z,13.07
2022-09-26T18:04:20.830Z,13.12
2022-09-26T18:06:49.350Z,13.10
2022-09-26T18:09:16.921Z,12.92
2022-09-26T18:11:55.083Z,13.20
2022-09-26T18:14:23.474Z,12.88
2022-09-26T18:16:49.979Z,12.38
2022-09-26T18:19:17.422Z,12.10
2022-09-26T18:21:44.105Z,12.81
2022-09-26T18:24:17.328Z,12.59
2022-09-26T18:26:50.851Z,12.50
2022-09-26T18:29:22.632Z,12.42
2022-09-26T18:31:49.220Z,12.52
2022-09-26T18:34:19.968Z,12.43
2022-09-26T18:36:48.127Z,12.37
2022-09-26T18:39:14.732Z,12.44
2022-09-26T18:41:41.524Z,12.41
2022-09-26T18:44:13.996Z,12.30
2022-09-26T18:46:44.423Z,12.08
2022-09-26T18:49:12.127Z,12.13
2022-09-26T18:51:38.772Z,12.11
2022-09-26T18:54:11.485Z,11.90
2022-09-26T18:56:58.701Z,11.94
2022-09-26T18:59:28.933Z,12.01
2022-09-26T19:01:56.331Z,11.95
2022-09-26T19:04:23.219Z,11.90
2022-09-26T19:06:54.063Z,11.90
2022-09-26T19:09:20.983Z,12.06
2022-09-26T19:11:47.491Z,11.95
2022-09-26T19:14:14.082Z,11.98
2022-09-26T19:16:41.329Z,11.95
2022-09-26T19:19:08.017Z,11.91
2022-09-26T19:21:39.566Z,11.87
2022-09-26T19:24:13.550Z,11.82
2022-09-26T19:26:43.221Z,11.58
2022-09-26T19:29:13.096Z,11.64
2022-09-26T19:31:40.618Z,11.53
2022-09-26T19:34:07.183Z,11.59
2022-09-26T19:36:33.614Z,11.68
2022-09-26T19:39:00.276Z,11.64
2022-09-26T19:41:27.737Z,11.61
2022-09-26T19:44:02.370Z,11.63
2022-09-26T19:46:30.760Z,11.70
2022-09-26T19:48:59.041Z,11.82
2022-09-26T19:51:25.750Z,11.58
2022-09-26T19:53:52.308Z,11.57
2022-09-26T19:56:18.938Z,11.66
2022-09-26T19:58:52.842Z,11.53
2022-09-26T20:01:21.361Z,11.54
2022-09-26T20:03:47.970Z,11.58
2022-09-26T20:06:16.460Z,11.43
2022-09-26T20:08:42.993Z,11.57
2022-09-26T20:11:09.789Z,11.64
2022-09-26T20:13:56.605Z,11.65
2022-09-26T20:16:23.600Z,11.62
2022-09-26T20:18:51.573Z,11.49
2022-09-26T20:21:19.526Z,11.47
2022-09-26T20:23:46.374Z,11.50
2022-09-26T20:26:14.891Z,11.57
2022-09-26T20:28:41.567Z,11.46
2022-09-26T20:31:22.678Z,11.55
2022-09-26T20:33:51.474Z,11.73
2022-09-26T20:36:29.265Z,11.59
2022-09-26T20:38:57.287Z,11.51
2022-09-26T20:41:23.804Z,11.55
2022-09-26T20:43:52.929Z,11.45
2022-09-26T20:46:21.995Z,11.54
2022-09-26T20:48:49.218Z,11.44
2022-09-26T20:51:18.248Z,11.44
2022-09-26T20:53:44.686Z,11.44
2022-09-26T20:56:17.041Z,11.60
2022-09-26T20:58:43.951Z,11.51
2022-09-26T21:01:17.246Z,11.44
2022-09-26T21:03:47.003Z,11.38
2022-09-26T21:06:18.864Z,11.39
2022-09-26T21:08:45.822Z,11.48
2022-09-26T21:11:15.218Z,11.43
2022-09-26T21:13:42.464Z,11.37
2022-09-26T21:16:16.884Z,11.47
2022-09-26T21:18:44.016Z,11.44
2022-09-26T21:21:21.057Z,11.43
2022-09-26T21:23:48.634Z,11.31
2022-09-26T21:26:25.917Z,11.33
2022-09-26T21:28:54.296Z,11.33
2022-09-26T21:31:22.829Z,11.35
2022-09-26T21:33:49.807Z,11.46
2022-09-26T21:36:16.373Z,11.40
2022-09-26T21:38:43.353Z,11.24
2022-09-26T21:41:10.771Z,11.33
2022-09-26T21:43:38.835Z,11.26
2022-09-26T21:46:06.036Z,11.39
2022-09-26T21:48:32.803Z,11.41
2022-09-26T21:51:00.268Z,11.33
2022-09-26T21:53:30.982Z,11.38
2022-09-26T21:56:06.458Z,11.51
2022-09-26T21:58:36.183Z,11.38
2022-09-26T22:01:02.784Z,11.24
2022-09-26T22:03:29.441Z,11.32
2022-09-26T22:05:55.933Z,11.07
2022-09-26T22:08:22.388Z,11.25
2022-09-26T22:10:51.567Z,11.33
2022-09-26T22:13:18.040Z,11.36
2022-09-26T22:15:44.516Z,11.29
2022-09-26T22:18:11.263Z,11.38
2022-09-26T22:20:37.711Z,11.31
2022-09-26T22:23:04.527Z,11.33
2022-09-26T22:25:31.110Z,11.28
2022-09-26T22:27:57.585Z,11.39
2022-09-26T22:30:24.128Z,11.25
2022-09-26T22:32:50.764Z,11.32
2022-09-26T22:35:17.304Z,11.25
2022-09-26T22:37:45.880Z,11.32
2022-09-26T22:40:12.415Z,11.38
2022-09-26T22:42:42.096Z,11.31
2022-09-26T22:45:08.899Z,11.26
2022-09-26T22:47:36.423Z,11.35
2022-09-26T22:50:02.935Z,11.34
2022-09-26T22:52:30.441Z,11.35
2022-09-26T22:54:57.011Z,11.36
2022-09-26T22:57:23.606Z,11.39
2022-09-26T22:59:50.030Z,11.34
2022-09-26T23:02:16.482Z,11.24
2022-09-26T23:04:49.137Z,11.67
2022-09-26T23:07:17.243Z,11.31
2022-09-26T23:09:43.826Z,11.22
2022-09-26T23:12:10.938Z,11.25
2022-09-26T23:14:39.552Z,11.22
2022-09-26T23:17:06.522Z,11.23
2022-09-26T23:19:40.189Z,11.18
2022-09-26T23:22:06.720Z,11.31
2022-09-26T23:24:33.175Z,11.20
2022-09-26T23:27:00.115Z,11.48
2022-09-26T23:29:27.676Z,11.39
2022-09-26T23:31:54.960Z,11.37
2022-09-26T23:34:21.692Z,11.18
2022-09-26T23:36:48.235Z,11.23
2022-09-26T23:39:14.912Z,11.13
2022-09-26T23:41:41.599Z,11.27
2022-09-26T23:44:08.035Z,11.21
2022-09-26T23:46:34.647Z,11.24
2022-09-26T23:49:01.207Z,11.35
2022-09-26T23:51:27.668Z,11.37
2022-09-26T23:53:55.282Z,11.23
2022-09-26T23:56:21.830Z,11.31
2022-09-26T23:58:49.689Z,11.35
